createdAt,value
2022-07-30T00:01:44.775Z,15.19
2022-07-30T00:04:11.424Z,14.73
2022-07-30T00:06:38.065Z,14.73
2022-07-30T00:09:04.820Z,15.14
2022-07-30T00:11:31.519Z,14.45
2022-07-30T00:13:58.208Z,14.31
2022-07-30T00:16:25.313Z,14.21
2022-07-30T00:18:52.136Z,14.49
2022-07-30T00:21:34.692Z,14.66
2022-07-30T00:24:06.404Z,14.45
2022-07-30T00:26:33.099Z,14.83
2022-07-30T00:28:59.953Z,14.58
2022-07-30T00:31:28.649Z,14.85
2022-07-30T00:33:55.682Z,14.61
2022-07-30T00:36:22.534Z,15.12
2022-07-30T00:38:49.536Z,15.12
2022-07-30T00:41:17.006Z,14.88
2022-07-30T00:43:44.458Z,14.89
2022-07-30T00:46:11.954Z,14.90
2022-07-30T00:48:39.702Z,14.85
2022-07-30T00:51:10.258Z,14.66
2022-07-30T00:53:51.021Z,14.75
2022-07-30T00:56:19.797Z,15.15
2022-07-30T00:58:46.627Z,14.73
2022-07-30T01:01:23.791Z,14.80
2022-07-30T01:03:58.981Z,14.69
2022-07-30T01:06:28.776Z,15.19
2022-07-30T01:08:56.331Z,15.02
2022-07-30T01:11:38.241Z,15.06
2022-07-30T01:14:09.275Z,15.13
2022-07-30T01:16:40.878Z,15.10
2022-07-30T01:19:15.672Z,15.30
2022-07-30T01:22:02.494Z,15.12
2022-07-30T01:24:41.046Z,15.27
2022-07-30T01:27:33.869Z,15.19
2022-07-30T01:30:41.017Z,14.81
2022-07-30T01:33:16.380Z,15.24
2022-07-30T01:36:14.101Z,14.89
2022-07-30T01:39:03.654Z,14.71
2022-07-30T01:41:31.765Z,14.43
2022-07-30T01:43:59.127Z,14.50
2022-07-30T01:46:27.655Z,14.57
2022-07-30T01:48:57.768Z,14.42
2022-07-30T01:51:26.821Z,14.83
2022-07-30T01:54:09.704Z,14.43
2022-07-30T01:56:37.746Z,14.74
2022-07-30T01:59:07.843Z,14.40
2022-07-30T02:01:35.462Z,15.06
2022-07-30T02:04:03.623Z,15.08
2022-07-30T02:06:37.411Z,14.99
2022-07-30T02:09:11.140Z,14.66
2022-07-30T02:11:47.567Z,15.15
2022-07-30T02:14:20.683Z,14.62
2022-07-30T02:16:56.041Z,15.46
2022-07-30T02:19:32.568Z,14.91
2022-07-30T02:22:06.907Z,14.55
2022-07-30T02:24:37.128Z,15.33
2022-07-30T02:27:08.456Z,15.32
2022-07-30T02:29:37.998Z,14.86
2022-07-30T02:32:10.812Z,15.18
2022-07-30T02:34:41.404Z,14.47
2022-07-30T02:37:10.862Z,14.83
2022-07-30T02:39:39.411Z,14.46
2022-07-30T02:42:07.570Z,14.76
2022-07-30T02:44:37.276Z,15.11
2022-07-30T02:47:06.068Z,14.83
2022-07-30T02:49:52.378Z,14.99
2022-07-30T02:52:19.927Z,14.84
2022-07-30T02:54:49.276Z,14.93
2022-07-30T02:57:19.668Z,14.83
2022-07-30T02:59:48.442Z,14.88
2022-07-30T03:02:15.992Z,15.01
2022-07-30T03:04:44.082Z,14.50
2022-07-30T03:07:16.968Z,14.95
2022-07-30T03:09:51.437Z,14.57
2022-07-30T03:12:20.006Z,14.88
2022-07-30T03:14:46.650Z,14.50
2022-07-30T03:17:18.234Z,14.94
2022-07-30T03:19:48.030Z,14.90
2022-07-30T03:22:17.329Z,14.68
2022-07-30T03:24:47.140Z,14.98
2022-07-30T03:27:16.197Z,15.09
2022-07-30T03:29:44.718Z,14.70
2022-07-30T03:32:13.889Z,14.83
2022-07-30T03:34:43.789Z,14.74
2022-07-30T03:37:11.415Z,14.87
2022-07-30T03:39:39.332Z,14.83
2022-07-30T03:42:07.956Z,15.19
2022-07-30T03:44:36.243Z,15.03
2022-07-30T03:47:05.766Z,15.06
2022-07-30T03:49:38.299Z,14.46
2022-07-30T03:52:06.400Z,14.72
2022-07-30T03:54:34.987Z,15.25
2022-07-30T03:57:30.865Z,15.41
2022-07-30T03:59:58.561Z,15.46
2022-07-30T04:02:26.184Z,14.66
2022-07-30T04:05:15.054Z,15.02
2022-07-30T04:07:45.084Z,15.07
2022-07-30T04:10:14.315Z,15.16
2022-07-30T04:13:07.873Z,14.79
2022-07-30T04:16:37.717Z,15.01
2022-07-30T04:18:38.841Z,14.67
2022-07-30T04:21:16.024Z,14.25
2022-07-30T04:24:03.799Z,14.43
2022-07-30T04:26:35.859Z,14.58
2022-07-30T04:29:06.814Z,14.02
2022-07-30T04:31:34.152Z,14.17
2022-07-30T04:34:27.573Z,13.89
2022-07-30T04:36:54.466Z,14.09
2022-07-30T04:39:21.255Z,14.84
2022-07-30T04:41:49.650Z,14.23
2022-07-30T04:44:37.279Z,14.30
2022-07-30T04:47:25.035Z,14.37
2022-07-30T04:50:13.777Z,14.07
2022-07-30T04:52:43.365Z,14.60
2022-07-30T04:55:13.309Z,14.80
2022-07-30T04:57:42.361Z,14.57
2022-07-30T05:00:10.152Z,15.02
2022-07-30T05:02:41.407Z,14.95
2022-07-30T05:05:12.794Z,14.81
2022-07-30T05:07:42.194Z,14.62
2022-07-30T05:10:12.236Z,14.60
2022-07-30T05:12:43.714Z,14.58
2022-07-30T05:15:11.594Z,14.67
2022-07-30T05:17:39.353Z,14.87
2022-07-30T05:20:10.154Z,14.59
2022-07-30T05:22:55.965Z,14.66
2022-07-30T05:25:24.262Z,14.66
2022-07-30T05:27:53.663Z,14.78
2022-07-30T05:30:26.152Z,14.96
2022-07-30T05:32:57.305Z,14.83
2022-07-30T05:35:24.769Z,14.34
2022-07-30T05:37:51.447Z,14.38
2022-07-30T05:40:19.786Z,14.31
2022-07-30T05:43:05.118Z,14.05
2022-07-30T05:45:33.423Z,14.35
2022-07-30T05:48:00.281Z,13.65
2022-07-30T05:50:26.983Z,13.63
2022-07-30T05:52:53.702Z,14.02
2022-07-30T05:55:49.600Z,13.91
2022-07-30T05:58:36.710Z,13.76
2022-07-30T06:01:03.703Z,14.31
2022-07-30T06:03:31.585Z,14.52
2022-07-30T06:06:22.456Z,14.02
2022-07-30T06:08:49.926Z,14.67
2022-07-30T06:11:17.108Z,14.70
2022-07-30T06:13:44.848Z,14.48
2022-07-30T06:16:11.741Z,14.58
2022-07-30T06:18:38.591Z,14.23
2022-07-30T06:21:13.583Z,15.30
2022-07-30T06:24:09.778Z,15.34
2022-07-30T06:26:40.467Z,15.49
2022-07-30T06:29:07.839Z,14.95
2022-07-30T06:31:35.674Z,15.26
2022-07-30T06:34:02.465Z,15.36
2022-07-30T06:36:34.660Z,15.25
2022-07-30T06:39:06.240Z,15.25
2022-07-30T06:41:59.052Z,14.51
2022-07-30T06:44:48.833Z,14.89
2022-07-30T06:47:24.188Z,15.41
2022-07-30T06:49:50.857Z,14.92
2022-07-30T06:52:18.857Z,14.86
2022-07-30T06:54:50.434Z,14.99
2022-07-30T06:57:40.490Z,15.20
2022-07-30T07:00:24.330Z,15.05
2022-07-30T07:02:51.277Z,15.16
2022-07-30T07:05:25.040Z,15.66
2022-07-30T07:07:59.217Z,15.74
2022-07-30T07:10:32.293Z,15.42
2022-07-30T07:13:19.276Z,15.61
2022-07-30T07:15:46.127Z,15.53
2022-07-30T07:18:18.288Z,15.50
2022-07-30T07:20:59.722Z,15.78
2022-07-30T07:23:26.427Z,15.66
2022-07-30T07:26:17.204Z,15.63
2022-07-30T07:28:43.907Z,15.51
2022-07-30T07:31:11.058Z,15.77
2022-07-30T07:33:38.683Z,16.20
2022-07-30T07:36:05.596Z,16.29
2022-07-30T07:38:32.477Z,16.04
2022-07-30T07:40:59.707Z,16.40
2022-07-30T07:43:27.611Z,16.05
2022-07-30T07:45:58.025Z,16.24
2022-07-30T07:48:27.734Z,15.66
2022-07-30T07:51:00.546Z,16.23
2022-07-30T07:53:30.817Z,16.17
2022-07-30T07:55:58.054Z,16.38
2022-07-30T07:58:26.855Z,16.57
2022-07-30T08:00:57.736Z,16.61
2022-07-30T08:03:43.960Z,16.55
2022-07-30T08:06:30.725Z,16.30
2022-07-30T08:09:23.595Z,16.18
2022-07-30T08:12:05.616Z,15.94
2022-07-30T08:14:52.190Z,15.97
2022-07-30T08:17:46.280Z,16.01
2022-07-30T08:20:22.705Z,15.73
2022-07-30T08:22:49.501Z,15.88
2022-07-30T08:25:21.806Z,16.34
2022-07-30T08:27:53.142Z,16.49
2022-07-30T08:30:20.482Z,16.44
2022-07-30T08:32:47.217Z,16.22
2022-07-30T08:35:13.865Z,16.21
2022-07-30T08:37:40.815Z,16.36
2022-07-30T08:40:08.251Z,16.60
2022-07-30T08:42:38.920Z,16.68
2022-07-30T08:45:07.358Z,17.07
2022-07-30T08:47:34.531Z,17.39
2022-07-30T08:50:03.846Z,17.69
2022-07-30T08:52:35.337Z,17.94
2022-07-30T08:55:02.550Z,18.22
2022-07-30T08:57:30.364Z,18.26
2022-07-30T09:00:00.801Z,17.81
2022-07-30T09:02:31.438Z,18.47
2022-07-30T09:05:14.091Z,18.18
2022-07-30T09:07:41.554Z,17.47
2022-07-30T09:10:13.482Z,17.87
2022-07-30T09:12:42.506Z,18.19
2022-07-30T09:15:17.289Z,18.65
2022-07-30T09:17:56.981Z,18.93
2022-07-30T09:20:34.608Z,18.81
2022-07-30T09:23:06.958Z,18.50
2022-07-30T09:25:52.882Z,18.44
2022-07-30T09:28:38.179Z,18.91
2022-07-30T09:31:14.457Z,19.52
2022-07-30T09:33:59.971Z,20.06
2022-07-30T09:36:42.066Z,20.06
2022-07-30T09:39:37.274Z,20.19
2022-07-30T09:42:27.099Z,20.37
2022-07-30T09:45:08.367Z,20.13
2022-07-30T09:47:45.507Z,19.60
2022-07-30T09:50:30.344Z,20.37
2022-07-30T09:53:08.753Z,20.43
2022-07-30T09:55:41.221Z,20.20
2022-07-30T09:58:08.938Z,20.42
2022-07-30T10:00:36.884Z,19.57
2022-07-30T10:03:33.750Z,19.43
2022-07-30T10:06:35.091Z,19.53
2022-07-30T10:09:14.320Z,19.39
2022-07-30T10:11:46.851Z,19.44
2022-07-30T10:14:14.247Z,19.61
2022-07-30T10:16:41.303Z,19.28
2022-07-30T10:19:13.723Z,19.45
2022-07-30T10:21:57.140Z,19.47
2022-07-30T10:24:42.886Z,19.03
2022-07-30T10:27:29.022Z,19.20
2022-07-30T10:30:29.353Z,19.34
2022-07-30T10:32:58.374Z,20.46
2022-07-30T10:35:34.590Z,20.38
2022-07-30T10:38:13.650Z,18.36
2022-07-30T10:40:54.604Z,20.58
2022-07-30T10:43:36.067Z,20.83
2022-07-30T10:46:27.079Z,17.77
2022-07-30T10:49:19.026Z,21.29
2022-07-30T10:51:54.618Z,20.21
2022-07-30T10:54:44.139Z,21.47
2022-07-30T10:57:32.649Z,17.46
2022-07-30T11:00:17.853Z,21.85
2022-07-30T11:03:18.036Z,21.91
2022-07-30T11:06:10.067Z,18.12
2022-07-30T11:08:50.765Z,18.07
2022-07-30T11:11:59.241Z,22.12
2022-07-30T11:14:22.959Z,18.40
2022-07-30T11:16:54.574Z,21.45
2022-07-30T11:19:55.638Z,17.74
2022-07-30T11:22:33.215Z,22.05
2022-07-30T11:25:17.348Z,19.59
2022-07-30T11:27:49.215Z,22.33
2022-07-30T11:30:17.413Z,22.37
2022-07-30T11:32:48.657Z,21.42
2022-07-30T11:35:23.545Z,21.66
2022-07-30T11:38:12.876Z,22.28
2022-07-30T11:41:02.031Z,22.10
2022-07-30T11:43:36.095Z,22.09
2022-07-30T11:46:28.815Z,22.06
2022-07-30T11:49:27.147Z,19.52
2022-07-30T11:52:01.421Z,20.49
2022-07-30T11:54:59.242Z,18.12
2022-07-30T11:57:44.193Z,19.15
2022-07-30T12:00:23.049Z,21.63
2022-07-30T12:05:27.339Z,22.25
2022-07-30T12:08:00.243Z,21.41
2022-07-30T12:10:27.670Z,20.76
2022-07-30T12:13:15.688Z,20.07
2022-07-30T12:15:46.189Z,19.49
2022-07-30T12:18:29.485Z,18.54
2022-07-30T12:20:59.372Z,17.23
2022-07-30T12:23:26.930Z,16.32
2022-07-30T12:25:53.638Z,14.99
2022-07-30T12:28:25.679Z,14.88
2022-07-30T12:30:54.665Z,14.28
2022-07-30T12:33:21.850Z,14.23
2022-07-30T12:35:49.933Z,14.74
2022-07-30T12:38:17.569Z,14.81
2022-07-30T12:41:10.865Z,14.85
2022-07-30T12:43:52.592Z,14.79
2022-07-30T12:46:19.252Z,15.33
2022-07-30T12:49:21.096Z,15.46
2022-07-30T12:51:57.452Z,16.44
2022-07-30T12:54:27.529Z,16.75
2022-07-30T12:57:02.409Z,17.14
2022-07-30T12:59:35.835Z,16.82
2022-07-30T13:02:03.047Z,17.66
2022-07-30T13:04:30.054Z,17.69
2022-07-30T13:07:23.227Z,17.80
2022-07-30T13:10:06.710Z,17.53
2022-07-30T13:12:40.874Z,17.47
2022-07-30T13:15:27.846Z,17.48
2022-07-30T13:17:54.835Z,16.62
2022-07-30T13:20:21.669Z,15.12
2022-07-30T13:22:48.301Z,16.83
2022-07-30T13:25:14.909Z,16.95
2022-07-30T13:27:41.544Z,17.45
2022-07-30T13:30:08.869Z,17.64
2022-07-30T13:32:35.776Z,17.65
2022-07-30T13:35:02.376Z,17.38
2022-07-30T13:37:37.898Z,17.52
2022-07-30T13:40:07.073Z,17.38
2022-07-30T13:42:33.723Z,17.86
2022-07-30T13:45:00.667Z,17.86
2022-07-30T13:47:27.253Z,17.53
2022-07-30T13:49:53.911Z,17.77
2022-07-30T13:52:20.472Z,17.94
2022-07-30T13:54:47.232Z,17.84
2022-07-30T13:57:13.963Z,17.67
2022-07-30T13:59:40.609Z,18.10
2022-07-30T14:02:07.282Z,18.08
2022-07-30T14:04:33.988Z,18.13
2022-07-30T14:07:00.989Z,18.39
2022-07-30T14:09:28.038Z,18.04
2022-07-30T14:11:54.662Z,17.66
2022-07-30T14:14:21.425Z,17.96
2022-07-30T14:16:49.923Z,18.04
2022-07-30T14:19:22.979Z,18.39
2022-07-30T14:21:52.717Z,18.36
2022-07-30T14:24:20.665Z,18.69
2022-07-30T14:26:47.869Z,19.04
2022-07-30T14:29:14.711Z,18.66
2022-07-30T14:31:41.371Z,18.28
2022-07-30T14:34:08.101Z,17.99
2022-07-30T14:36:35.075Z,18.00
2022-07-30T14:39:01.630Z,18.12
2022-07-30T14:41:28.553Z,17.55
2022-07-30T14:43:55.516Z,17.48
2022-07-30T14:46:23.149Z,17.46
2022-07-30T14:48:50.179Z,17.87
2022-07-30T14:51:21.907Z,17.69
2022-07-30T14:53:50.888Z,17.93
2022-07-30T14:56:17.725Z,17.86
2022-07-30T14:58:45.049Z,17.79
2022-07-30T15:01:16.345Z,17.65
2022-07-30T15:03:47.282Z,18.24
2022-07-30T15:06:14.106Z,17.98
2022-07-30T15:08:42.180Z,18.11
2022-07-30T15:11:08.866Z,17.73
2022-07-30T15:13:36.533Z,17.88
2022-07-30T15:16:03.164Z,17.70
2022-07-30T15:18:29.873Z,17.95
2022-07-30T15:20:56.469Z,17.99
2022-07-30T15:23:23.111Z,18.00
2022-07-30T15:25:49.756Z,18.18
2022-07-30T15:28:19.427Z,18.45
2022-07-30T15:30:46.400Z,17.93
2022-07-30T15:33:13.056Z,17.67
2022-07-30T15:35:39.684Z,18.10
2022-07-30T15:38:06.529Z,18.06
2022-07-30T15:40:33.185Z,17.61
2022-07-30T15:43:02.070Z,17.80
2022-07-30T15:45:50.998Z,17.82
2022-07-30T15:48:26.684Z,17.71
2022-07-30T15:51:04.606Z,17.88
2022-07-30T15:53:32.025Z,17.74
2022-07-30T15:55:59.835Z,18.17
2022-07-30T15:58:26.713Z,17.87
2022-07-30T16:00:53.374Z,17.98
2022-07-30T16:03:20.211Z,17.76
2022-07-30T16:05:51.090Z,18.39
2022-07-30T16:08:22.607Z,18.22
2022-07-30T16:10:51.118Z,18.40
2022-07-30T16:13:23.026Z,18.15
2022-07-30T16:15:50.793Z,18.38
2022-07-30T16:18:17.518Z,18.21
2022-07-30T16:20:44.137Z,18.21
2022-07-30T16:23:15.914Z,18.66
2022-07-30T16:25:44.824Z,18.59
2022-07-30T16:28:11.355Z,18.61
2022-07-30T16:30:50.557Z,18.88
2022-07-30T16:33:19.498Z,18.36
2022-07-30T16:35:49.450Z,18.72
2022-07-30T16:38:21.069Z,18.72
2022-07-30T16:40:47.719Z,18.76
2022-07-30T16:43:15.659Z,18.50
2022-07-30T16:45:43.379Z,18.50
2022-07-30T16:48:10.484Z,18.09
2022-07-30T16:50:37.872Z,18.48
2022-07-30T16:53:04.497Z,17.98
2022-07-30T16:55:31.116Z,17.81
2022-07-30T16:57:58.262Z,18.03
2022-07-30T17:00:25.040Z,18.46
2022-07-30T17:02:51.939Z,18.43
2022-07-30T17:05:19.012Z,18.65
2022-07-30T17:07:45.913Z,18.55
2022-07-30T17:10:12.446Z,18.38
2022-07-30T17:12:40.156Z,18.98
2022-07-30T17:15:07.402Z,18.98
2022-07-30T17:17:34.033Z,18.71
2022-07-30T17:20:00.619Z,18.37
2022-07-30T17:22:27.983Z,18.61
2022-07-30T17:24:54.658Z,18.56
2022-07-30T17:27:21.677Z,18.43
2022-07-30T17:29:50.274Z,18.53
2022-07-30T17:32:19.117Z,18.81
2022-07-30T17:34:46.407Z,18.90
2022-07-30T17:37:13.161Z,18.65
2022-07-30T17:40:19.846Z,17.90
2022-07-30T17:42:26.516Z,18.93
2022-07-30T17:44:53.115Z,18.64
2022-07-30T17:47:19.711Z,18.85
2022-07-30T17:49:46.476Z,18.98
2022-07-30T17:52:13.165Z,18.97
2022-07-30T17:54:40.141Z,18.82
2022-07-30T17:57:07.074Z,18.82
2022-07-30T17:59:33.747Z,18.34
2022-07-30T18:02:00.766Z,18.47
2022-07-30T18:04:27.746Z,18.14
2022-07-30T18:06:54.474Z,18.61
2022-07-30T18:09:21.549Z,18.91
2022-07-30T18:11:48.316Z,19.06
2022-07-30T18:14:15.353Z,18.86
2022-07-30T18:16:42.050Z,19.13
2022-07-30T18:19:08.714Z,18.90
2022-07-30T18:21:49.609Z,18.99
2022-07-30T18:24:16.183Z,18.87
2022-07-30T18:26:44.474Z,18.51
2022-07-30T18:29:14.127Z,18.94
2022-07-30T18:31:41.101Z,18.57
2022-07-30T18:34:07.894Z,18.47
2022-07-30T18:36:34.615Z,18.56
2022-07-30T18:39:01.291Z,18.31
2022-07-30T18:41:28.266Z,18.23
2022-07-30T18:43:55.064Z,18.19
2022-07-30T18:46:24.134Z,17.76
2022-07-30T18:48:50.832Z,18.22
2022-07-30T18:51:17.509Z,18.22
2022-07-30T18:53:44.689Z,18.60
2022-07-30T18:56:11.487Z,18.31
2022-07-30T18:58:38.520Z,18.46
2022-07-30T19:01:05.878Z,17.52
2022-07-30T19:03:32.897Z,17.15
2022-07-30T19:05:59.570Z,17.00
2022-07-30T19:08:26.200Z,17.32
2022-07-30T19:10:52.934Z,16.52
2022-07-30T19:13:19.521Z,17.33
2022-07-30T19:15:46.431Z,17.30
2022-07-30T19:18:13.007Z,17.43
2022-07-30T19:20:39.879Z,17.38
2022-07-30T19:23:10.664Z,17.37
2022-07-30T19:25:37.515Z,16.41
2022-07-30T19:28:05.009Z,16.62
2022-07-30T19:30:32.717Z,17.29
2022-07-30T19:33:12.640Z,17.24
2022-07-30T19:35:41.953Z,16.66
2022-07-30T19:38:14.315Z,16.95
2022-07-30T19:40:48.903Z,16.90
2022-07-30T19:43:17.879Z,17.13
2022-07-30T19:45:51.320Z,16.63
2022-07-30T19:48:28.917Z,16.71
2022-07-30T19:51:01.799Z,17.01
2022-07-30T19:53:34.708Z,17.12
2022-07-30T19:58:54.816Z,16.09
2022-07-30T20:01:24.085Z,17.06
2022-07-30T20:04:07.278Z,17.33
2022-07-30T20:06:34.002Z,16.88
2022-07-30T20:09:00.790Z,16.65
2022-07-30T20:11:35.024Z,16.27
2022-07-30T20:14:23.026Z,16.87
2022-07-30T20:16:50.765Z,16.96
2022-07-30T20:19:27.669Z,16.51
2022-07-30T20:22:02.888Z,16.32
2022-07-30T20:24:29.505Z,16.87
2022-07-30T20:26:56.206Z,16.36
2022-07-30T20:29:28.364Z,16.37
2022-07-30T20:32:05.772Z,16.80
2022-07-30T20:34:43.188Z,16.49
2022-07-30T20:37:22.254Z,16.19
2022-07-30T20:39:50.987Z,16.35
2022-07-30T20:42:18.529Z,16.50
2022-07-30T20:44:50.843Z,16.01
2022-07-30T20:47:34.579Z,16.59
2022-07-30T20:50:16.038Z,16.41
2022-07-30T20:52:46.831Z,16.20
2022-07-30T20:55:16.145Z,16.10
2022-07-30T21:00:31.215Z,16.22
2022-07-30T21:02:57.794Z,15.94
2022-07-30T21:05:30.340Z,16.26
2022-07-30T21:08:09.485Z,15.14
2022-07-30T21:11:14.662Z,13.95
2022-07-30T21:13:45.493Z,14.37
2022-07-30T21:16:16.354Z,13.07
2022-07-30T21:18:50.366Z,15.40
2022-07-30T21:21:38.349Z,13.84
2022-07-30T21:24:21.152Z,11.67
2022-07-30T21:26:51.656Z,13.08
2022-07-30T21:29:21.018Z,15.98
2022-07-30T21:31:58.075Z,15.44
2022-07-30T21:34:40.423Z,15.62
2022-07-30T21:37:09.625Z,15.19
2022-07-30T21:39:46.093Z,15.23
2022-07-30T21:42:13.906Z,15.87
2022-07-30T21:44:43.330Z,14.92
2022-07-30T21:47:14.623Z,14.54
2022-07-30T21:53:29.795Z,10.97
2022-07-30T21:56:30.356Z,10.64
2022-07-30T21:58:57.642Z,14.55
2022-07-30T22:01:24.209Z,14.89
2022-07-30T22:04:01.073Z,15.36
2022-07-30T22:06:41.915Z,15.33
2022-07-30T22:09:19.610Z,15.33
2022-07-30T22:12:02.101Z,15.31
2022-07-30T22:14:33.915Z,14.86
2022-07-30T22:17:01.446Z,14.32
2022-07-30T22:19:31.297Z,14.64
2022-07-30T22:21:58.504Z,14.74
2022-07-30T22:24:31.393Z,14.70
2022-07-30T22:27:10.710Z,14.91
2022-07-30T22:29:42.606Z,14.89
2022-07-30T22:32:09.562Z,14.51
2022-07-30T22:34:36.306Z,14.49
2022-07-30T22:37:02.937Z,14.36
2022-07-30T22:39:32.192Z,14.16
2022-07-30T22:42:16.842Z,14.21
2022-07-30T22:44:45.869Z,14.62
2022-07-30T22:47:18.849Z,14.63
2022-07-30T22:52:39.357Z,13.62
2022-07-30T22:55:09.111Z,14.07
2022-07-30T22:57:54.369Z,14.25
2022-07-30T23:00:28.193Z,13.82
2022-07-30T23:02:56.229Z,14.83
2022-07-30T23:05:22.973Z,14.68
2022-07-30T23:07:50.189Z,14.49
2022-07-30T23:10:20.555Z,14.24
2022-07-30T23:12:26.542Z,16.37
2022-07-30T23:12:30.541Z,14.03
2022-07-30T23:12:31.100Z,16.98
2022-07-30T23:12:51.739Z,13.86
2022-07-30T23:15:20.503Z,14.59
2022-07-30T23:17:48.019Z,13.88
2022-07-30T23:20:18.507Z,14.60
2022-07-30T23:22:45.956Z,13.70
2022-07-30T23:25:13.881Z,13.88
2022-07-30T23:27:41.294Z,14.24
2022-07-30T23:30:09.984Z,14.21
2022-07-30T23:32:37.001Z,14.06
2022-07-30T23:35:04.674Z,13.91
2022-07-30T23:37:47.879Z,14.02
2022-07-30T23:40:17.949Z,14.47
2022-07-30T23:42:44.649Z,13.98
2022-07-30T23:45:11.366Z,13.80
2022-07-30T23:48:00.526Z,13.97
2022-07-30T23:50:24.963Z,13.90
2022-07-30T23:52:51.710Z,13.69
2022-07-30T23:55:18.458Z,13.91
2022-07-30T23:57:45.101Z,13.79
